Time;durP1;ratioP1;P1;durP2;ratioP2;P2;SDS_P1;SDS_P2;PMS_P1;PMS_P2;Temp;Humidity;BMP_temperature;BMP_pressure;BME280_temperature;BME280_humidity;BME280_pressure;Samples;Min_cycle;Max_cycle;Signal;HPM_P1;HPM_P2
2022/05/23 00:01:18;;;;;;;3.00;1.40;;;;;;;22.93;53.58;99375.06;4972994;28;20471;-77
2022/05/23 00:03:44;;;;;;;5.00;1.80;;;;;;;22.93;53.72;99375.06;4957105;28;20197;-76
2022/05/23 00:06:10;;;;;;;4.00;1.90;;;;;;;22.93;53.87;99377.13;4989037;28;20974;-76
2022/05/23 00:08:35;;;;;;;4.90;1.50;;;;;;;22.92;53.88;99379.19;4956915;28;20585;-74
2022/05/23 00:11:01;;;;;;;3.23;1.63;;;;;;;22.92;53.50;99370.56;4989767;28;20205;-75
2022/05/23 00:13:27;;;;;;;3.37;1.50;;;;;;;22.92;53.22;99375.50;4956183;28;20182;-77
2022/05/23 00:15:52;;;;;;;2.90;1.77;;;;;;;22.92;53.78;99361.13;4972834;28;20615;-76
2022/05/23 00:18:18;;;;;;;3.83;1.50;;;;;;;22.92;53.97;99364.00;4974115;28;20443;-75
2022/05/23 00:20:43;;;;;;;2.67;1.30;;;;;;;22.91;53.76;99360.28;4991840;28;20166;-74
2022/05/23 00:23:09;;;;;;;4.30;1.57;;;;;;;22.91;53.75;99353.72;4980299;28;20535;-76
2022/05/23 00:25:34;;;;;;;2.97;1.63;;;;;;;22.91;53.52;99353.72;4996160;28;20184;-76
2022/05/23 00:28:00;;;;;;;2.70;1.43;;;;;;;22.92;53.72;99353.28;4990039;28;20177;-74
2022/05/23 00:30:26;;;;;;;3.40;1.73;;;;;;;22.91;53.74;99343.03;4960448;28;20193;-74
2022/05/23 00:35:36;;;;;;;3.17;1.53;;;;;;;22.90;53.54;99327.00;4992914;28;20423;-75
2022/05/23 00:38:01;;;;;;;2.10;1.50;;;;;;;22.91;53.70;99314.25;4976361;28;20424;-75
2022/05/23 00:40:30;;;;;;;2.50;1.57;;;;;;;22.91;53.69;99307.66;4975811;28;20650;-75
2022/05/23 00:43:16;;;;;;;2.80;1.60;;;;;;;22.90;53.89;99295.34;4992090;28;20201;-74
2022/05/23 00:45:43;;;;;;;3.93;1.70;;;;;;;22.91;53.73;99284.63;4976134;28;20433;-74
2022/05/23 00:48:09;;;;;;;3.27;1.47;;;;;;;22.90;53.66;99275.19;4990735;28;20527;-74
2022/05/23 00:50:35;;;;;;;2.57;1.70;;;;;;;22.90;54.10;99275.19;4957826;28;20424;-75
2022/05/23 00:53:00;;;;;;;2.80;1.70;;;;;;;22.90;53.58;99280.13;4972640;28;20177;-76
2022/05/23 00:55:31;;;;;;;2.60;1.40;;;;;;;22.90;54.16;99277.25;4957148;28;20645;-76
2022/05/23 00:57:59;;;;;;;3.80;2.10;;;;;;;22.89;54.03;99279.31;4973193;28;20185;-74
2022/05/23 01:00:24;;;;;;;2.40;1.40;;;;;;;22.89;53.73;99275.63;4974683;28;20429;-76
2022/05/23 01:02:54;;;;;;;2.30;1.20;;;;;;;22.89;54.00;99275.63;4959523;28;20528;-74
2022/05/23 01:05:20;;;;;;;2.57;1.43;;;;;;;22.90;54.08;99283.00;4975506;28;20694;-76
2022/05/23 01:07:45;;;;;;;2.57;1.60;;;;;;;22.89;53.86;99276.44;4975883;28;20439;-74
2022/05/23 01:10:11;;;;;;;3.30;1.63;;;;;;;22.89;53.66;99279.31;4959226;28;20205;-75
2022/05/23 01:12:37;;;;;;;2.20;1.40;;;;;;;22.88;53.82;99277.69;4975740;28;20194;-74
2022/05/23 01:15:05;;;;;;;4.03;1.73;;;;;;;22.89;53.59;99284.25;4975924;28;20185;-76
2022/05/23 01:17:30;;;;;;;3.00;1.73;;;;;;;22.88;53.99;99283.44;4971200;28;20181;-74
2022/05/23 01:19:56;;;;;;;2.57;1.50;;;;;;;22.88;54.25;99283.44;4994409;28;21126;-76
2022/05/23 01:22:27;;;;;;;2.57;1.60;;;;;;;22.88;54.05;99286.31;5011100;28;20256;-74
2022/05/23 01:24:59;;;;;;;3.50;1.83;;;;;;;22.88;53.93;99286.31;5002281;28;20196;-74
2022/05/23 01:27:25;;;;;;;4.57;1.60;;;;;;;22.88;53.73;99280.56;4991763;28;20421;-74
2022/05/23 01:29:50;;;;;;;3.77;1.90;;;;;;;22.88;54.43;99285.50;4974997;28;20439;-74
2022/05/23 01:32:16;;;;;;;2.87;1.30;;;;;;;22.88;54.10;99294.94;4975255;28;20417;-76
2022/05/23 01:34:44;;;;;;;3.10;2.00;;;;;;;22.88;54.41;99285.50;4959166;28;20600;-74
2022/05/23 01:37:09;;;;;;;2.37;1.37;;;;;;;22.86;54.00;99283.06;4992570;28;20232;-74
2022/05/23 01:39:35;;;;;;;2.70;1.40;;;;;;;22.87;53.70;99266.63;4974983;28;20429;-75
2022/05/23 01:42:00;;;;;;;3.20;1.90;;;;;;;22.86;53.98;99254.28;4991278;28;20669;-75
2022/05/23 01:44:28;;;;;;;3.27;1.70;;;;;;;22.86;53.77;99265.78;4975218;28;20639;-76
2022/05/23 01:46:53;;;;;;;3.90;1.90;;;;;;;22.86;54.20;99248.53;4991568;28;20178;-76
2022/05/23 01:49:19;;;;;;;3.40;1.90;;;;;;;22.86;53.91;99248.53;4990665;28;20429;-76
2022/05/23 01:51:45;;;;;;;3.20;1.60;;;;;;;22.85;54.42;99249.78;4975154;28;20188;-75
2022/05/23 01:54:12;;;;;;;2.90;1.77;;;;;;;22.86;54.08;99245.66;4976017;28;20413;-74
2022/05/23 01:56:38;;;;;;;5.43;1.90;;;;;;;22.86;54.24;99244.81;4975930;28;20239;-75
2022/05/23 02:01:47;;;;;;;2.93;1.60;;;;;;;22.85;54.15;99235.38;4977325;28;20750;-74
2022/05/23 02:04:12;;;;;;;3.07;1.80;;;;;;;22.85;54.22;99240.31;4958426;28;20453;-74
2022/05/23 02:06:38;;;;;;;3.67;1.87;;;;;;;22.85;53.98;99232.50;4977858;28;20184;-76
2022/05/23 02:09:04;;;;;;;5.40;1.73;;;;;;;22.84;53.99;99245.28;4993745;28;20510;-75
2022/05/23 02:11:29;;;;;;;3.30;1.93;;;;;;;22.85;54.27;99223.06;4993860;28;20177;-76
2022/05/23 02:13:55;;;;;;;4.40;1.87;;;;;;;22.84;54.04;99215.66;4977866;28;20184;-75
2022/05/23 02:16:22;;;;;;;3.80;1.60;;;;;;;22.83;54.06;99206.22;4978135;28;20181;-77
2022/05/23 02:18:47;;;;;;;2.47;1.70;;;;;;;22.82;53.89;99210.34;4977948;28;20201;-75
2022/05/23 02:21:12;;;;;;;3.40;2.07;;;;;;;22.83;54.15;99209.09;5010463;28;20475;-75
2022/05/23 02:23:38;;;;;;;2.60;1.50;;;;;;;22.83;54.15;99211.16;4978037;28;20231;-76
2022/05/23 02:26:04;;;;;;;3.00;1.93;;;;;;;22.84;53.93;99205.00;4994044;28;20168;-76
2022/05/23 02:28:29;;;;;;;2.73;1.60;;;;;;;22.83;54.10;99209.09;4977552;28;20181;-74
2022/05/23 02:30:55;;;;;;;3.00;1.80;;;;;;;22.83;54.18;99202.53;4993243;28;20931;-77
2022/05/23 02:33:20;;;;;;;4.37;2.07;;;;;;;22.82;54.07;99203.78;4993784;28;20573;-78
2022/05/23 02:35:46;;;;;;;2.80;1.87;;;;;;;22.82;53.96;99198.84;4993319;28;20180;-77
2022/05/23 02:38:11;;;;;;;3.20;1.67;;;;;;;22.82;54.48;99204.59;5011701;28;20165;-75
2022/05/23 02:40:37;;;;;;;4.07;1.80;;;;;;;22.82;54.43;99207.47;4976456;28;20181;-74
2022/05/23 02:43:02;;;;;;;4.43;2.27;;;;;;;22.83;54.36;99222.69;5011022;28;20188;-76
2022/05/23 02:45:28;;;;;;;3.40;1.90;;;;;;;22.81;54.13;99228.88;4976580;28;20200;-76
2022/05/23 02:47:54;;;;;;;3.97;2.27;;;;;;;22.81;54.07;99246.13;4990745;28;20161;-75
2022/05/23 02:50:19;;;;;;;4.93;2.00;;;;;;;22.80;54.21;99273.28;4989007;28;20431;-74
2022/05/23 02:52:45;;;;;;;3.97;2.00;;;;;;;22.78;54.18;99304.56;4958829;28;20715;-76
2022/05/23 02:55:12;;;;;;;3.60;1.70;;;;;;;22.78;54.30;99339.09;4976482;28;20211;-75
2022/05/23 02:57:37;;;;;;;4.93;2.30;;;;;;;22.76;54.05;99398.31;4976926;28;20617;-76
2022/05/23 03:00:05;;;;;;;3.30;1.70;;;;;;;22.71;53.63;99425.53;5009904;28;20420;-75
2022/05/23 03:05:14;;;;;;;4.03;2.07;;;;;;;22.65;53.98;99398.50;4987863;28;20478;-76
2022/05/23 03:07:40;;;;;;;7.80;2.30;;;;;;;22.63;53.85;99400.97;4988227;28;20425;-77
2022/05/23 03:10:09;;;;;;;5.47;2.00;;;;;;;22.66;54.16;99405.03;4972471;28;20544;-76
2022/05/23 03:12:34;;;;;;;5.07;1.90;;;;;;;22.66;54.09;99400.13;4973208;28;20209;-74
2022/05/23 03:15:00;;;;;;;6.03;2.30;;;;;;;22.68;53.92;99391.06;4956825;28;20429;-74
2022/05/23 03:17:26;;;;;;;6.77;2.10;;;;;;;22.68;53.90;99403.38;4966888;28;20183;-76
2022/05/23 03:19:51;;;;;;;4.33;1.90;;;;;;;22.71;54.37;99407.44;4992161;28;20423;-75
2022/05/23 03:27:45;;;;;;;7.20;2.53;;;;;;;22.72;54.50;99499.09;4996198;28;20420;-75
2022/05/23 03:30:10;;;;;;;4.57;2.00;;;;;;;22.72;54.19;99524.22;4945879;28;20915;-75
2022/05/23 03:32:39;;;;;;;9.37;2.40;;;;;;;22.72;54.58;99527.88;4964790;28;20205;-75
2022/05/23 03:35:06;;;;;;;3.70;1.90;;;;;;;22.72;54.22;99539.41;4962942;28;20268;-75
2022/05/23 03:37:31;;;;;;;6.73;2.30;;;;;;;22.72;54.16;99516.38;4977603;28;20421;-75
2022/05/23 03:39:56;;;;;;;5.80;2.20;;;;;;;22.72;54.86;99498.31;4974501;28;20430;-74
2022/05/23 03:42:22;;;;;;;3.30;2.00;;;;;;;22.72;54.53;99507.75;4965325;28;20631;-75
2022/05/23 03:44:47;;;;;;;7.27;2.63;;;;;;;22.73;54.45;99512.25;4989569;28;20208;-74
2022/05/23 03:47:13;;;;;;;3.53;1.80;;;;;;;22.71;54.48;99503.22;4973056;28;20174;-75
2022/05/23 03:49:38;;;;;;;3.80;2.37;;;;;;;22.72;55.08;99509.81;4973292;28;20189;-76
2022/05/23 03:52:04;;;;;;;11.50;1.93;;;;;;;22.72;54.71;99496.22;4973635;28;20169;-76
2022/05/23 03:54:29;;;;;;;5.17;2.27;;;;;;;22.71;54.96;99488.84;4973717;28;20220;-76
2022/05/23 03:56:59;;;;;;;5.40;2.20;;;;;;;22.71;55.04;99471.56;4988752;28;20174;-74
2022/05/23 03:59:26;;;;;;;5.27;2.10;;;;;;;22.72;54.93;99467.44;4973106;28;20182;-75
2022/05/23 04:01:52;;;;;;;4.10;2.40;;;;;;;22.71;55.17;99457.19;4953276;28;20470;-75
2022/05/23 04:04:18;;;;;;;4.40;2.00;;;;;;;22.71;54.67;99447.72;4966550;28;20451;-76
2022/05/23 04:06:43;;;;;;;5.03;2.60;;;;;;;22.71;55.09;99425.53;4975022;28;20767;-77
2022/05/23 04:09:09;;;;;;;3.40;1.90;;;;;;;22.70;55.11;99411.56;4975936;28;20640;-75
2022/05/23 04:11:34;;;;;;;3.77;2.30;;;;;;;22.70;55.63;99406.66;4956983;28;20640;-75
2022/05/23 04:14:00;;;;;;;4.60;2.13;;;;;;;22.70;55.77;99403.78;4976204;28;20176;-76
2022/05/23 04:16:28;;;;;;;6.80;2.23;;;;;;;22.75;55.38;99409.03;5011322;28;20173;-74
2022/05/23 04:18:53;;;;;;;4.10;2.00;;;;;;;22.84;56.57;99431.53;4980207;28;20184;-76
2022/05/23 04:21:19;;;;;;;16.83;3.90;;;;;;;23.00;58.68;99431.72;4994446;28;20833;-77
2022/05/23 04:23:46;;;;;;;6.00;3.27;;;;;;;23.07;57.64;99376.91;5011896;28;20176;-75
2022/05/23 04:26:12;;;;;;;8.00;3.17;;;;;;;23.13;57.78;99327.03;4979349;28;20489;-74
2022/05/23 04:28:40;;;;;;;7.70;3.03;;;;;;;23.18;58.33;99273.94;4996392;28;20423;-76
2022/05/23 04:31:19;;;;;;;5.93;2.43;;;;;;;23.19;58.28;99249.66;5011558;28;20229;-74
2022/05/23 04:36:28;;;;;;;4.47;2.87;;;;;;;23.24;58.55;99229.00;5013534;28;20398;-75
2022/05/23 04:38:54;;;;;;;9.03;3.33;;;;;;;23.21;58.49;99207.63;5011147;28;20914;-76
2022/05/23 04:41:19;;;;;;;5.30;2.83;;;;;;;23.25;58.50;99179.59;5024967;28;20197;-76
2022/05/23 04:43:45;;;;;;;5.13;2.53;;;;;;;23.18;58.01;99208.50;4991740;28;20177;-76
2022/05/23 04:46:10;;;;;;;5.63;2.70;;;;;;;23.18;58.18;99240.19;4991703;28;20157;-74
2022/05/23 04:51:20;;;;;;;7.63;3.30;;;;;;;23.24;58.86;99246.28;4994017;28;20672;-74
2022/05/23 04:53:49;;;;;;;6.17;2.30;;;;;;;23.33;59.45;99226.38;4991859;28;20522;-74
2022/05/23 04:56:15;;;;;;;5.40;2.50;;;;;;;23.36;59.33;99213.94;4960489;28;20185;-75
2022/05/23 04:58:40;;;;;;;4.50;2.10;;;;;;;23.40;59.53;99195.34;4959898;28;20958;-75
2022/05/23 05:01:06;;;;;;;7.70;3.00;;;;;;;23.36;59.41;99197.47;4975302;28;20201;-74
2022/05/23 05:03:31;;;;;;;7.80;3.20;;;;;;;23.35;59.30;99177.75;4992028;28;20248;-77
2022/05/23 05:05:57;;;;;;;7.50;2.90;;;;;;;23.29;59.18;99173.75;4974138;28;20228;-76
2022/05/23 05:08:23;;;;;;;5.10;2.47;;;;;;;23.27;59.80;99182.84;4992664;28;20190;-75
2022/05/23 05:10:49;;;;;;;4.60;2.10;;;;;;;23.20;57.58;99176.41;4961280;28;20315;-76
2022/05/23 05:13:14;;;;;;;5.00;2.27;;;;;;;23.04;59.40;99162.69;4993084;28;20439;-74
2022/05/23 05:15:40;;;;;;;8.07;2.97;;;;;;;23.21;58.93;99158.69;4961321;28;20204;-75
2022/05/23 05:18:06;;;;;;;5.33;2.60;;;;;;;23.17;58.33;99136.91;5011310;28;20192;-77
2022/05/23 05:20:31;;;;;;;7.07;2.20;;;;;;;23.04;58.57;99122.38;4978583;28;20189;-76
2022/05/23 05:22:57;;;;;;;3.80;2.20;;;;;;;23.03;58.85;99108.41;4994256;28;20639;-76
2022/05/23 05:25:22;;;;;;;6.17;2.30;;;;;;;22.99;59.04;99099.84;4979364;28;20173;-73
2022/05/23 05:27:48;;;;;;;3.87;2.17;;;;;;;23.05;59.26;99095.22;4994801;28;20291;-74
2022/05/23 05:30:16;;;;;;;6.83;3.07;;;;;;;23.08;59.22;99102.94;4994721;28;20177;-76
2022/05/23 05:32:46;;;;;;;5.70;2.60;;;;;;;23.08;58.67;99110.78;4975114;28;20217;-75
2022/05/23 05:35:18;;;;;;;11.53;3.27;;;;;;;22.96;59.79;99123.75;4975906;28;20424;-75
2022/05/23 05:37:46;;;;;;;15.77;3.30;;;;;;;22.97;59.79;99136.09;4992889;28;21087;-76
2022/05/23 05:40:13;;;;;;;10.10;2.83;;;;;;;23.00;59.59;99149.59;4974017;28;21006;-76
2022/05/23 05:42:41;;;;;;;6.53;2.63;;;;;;;23.03;59.49;99128.56;4976691;28;20463;-76
2022/05/23 05:45:11;;;;;;;17.93;2.90;;;;;;;23.04;59.71;99127.31;4977230;28;20416;-76
2022/05/23 05:47:37;;;;;;;8.23;2.67;;;;;;;23.04;59.50;99128.13;5011071;28;20514;-75
2022/05/23 05:50:24;;;;;;;11.30;2.90;;;;;;;23.04;59.70;99138.81;4977682;28;20431;-74
2022/05/23 05:52:50;;;;;;;8.77;2.50;;;;;;;23.03;59.84;99138.00;4962165;28;20507;-75
2022/05/23 05:55:15;;;;;;;10.90;2.97;;;;;;;23.02;59.65;99144.22;4977477;28;20482;-76
2022/05/23 05:57:41;;;;;;;9.23;2.83;;;;;;;23.03;59.06;99163.91;4978483;28;20640;-74
2022/05/23 06:00:07;;;;;;;7.40;2.87;;;;;;;23.02;59.71;99158.63;4993999;28;20177;-76
2022/05/23 06:02:33;;;;;;;9.20;3.20;;;;;;;23.01;59.23;99151.22;4978245;28;20189;-77
2022/05/23 06:04:58;;;;;;;6.90;2.70;;;;;;;23.00;59.47;99156.16;4994410;28;20488;-74
2022/05/23 06:12:56;;;;;;;6.60;2.37;;;;;;;23.00;59.62;99138.91;4995949;28;20439;-76
2022/05/23 06:15:22;;;;;;;6.80;2.80;;;;;;;22.99;59.37;99157.44;4993188;28;20420;-75
2022/05/23 06:17:47;;;;;;;6.97;2.60;;;;;;;23.00;59.71;99156.16;5007360;28;20980;-74
2022/05/23 06:20:13;;;;;;;11.87;3.20;;;;;;;23.00;59.36;99158.22;4979364;28;20564;-75
2022/05/23 06:22:38;;;;;;;7.23;3.20;;;;;;;23.01;59.39;99168.47;5031687;28;20564;-76
2022/05/23 06:25:05;;;;;;;7.10;2.93;;;;;;;22.99;59.52;99168.94;4981090;28;20180;-77
2022/05/23 06:27:30;;;;;;;5.63;2.37;;;;;;;23.00;58.95;99176.31;4997009;28;20636;-74
2022/05/23 06:29:56;;;;;;;6.30;2.53;;;;;;;23.01;59.05;99180.81;4996879;28;20420;-77
2022/05/23 06:32:21;;;;;;;7.03;2.67;;;;;;;23.02;59.35;99178.78;4997094;28;20164;-74
2022/05/23 06:34:47;;;;;;;6.20;2.90;;;;;;;23.02;59.47;99175.91;5013168;28;20265;-74
2022/05/23 06:37:12;;;;;;;5.10;2.40;;;;;;;23.02;59.32;99191.09;4996816;28;20161;-76
2022/05/23 06:39:38;;;;;;;8.43;2.43;;;;;;;23.02;59.61;99198.94;4996974;28;20550;-76
2022/05/23 06:42:04;;;;;;;7.93;2.10;;;;;;;23.02;59.26;99190.28;4971090;28;20212;-77
2022/05/23 06:44:29;;;;;;;4.80;2.20;;;;;;;23.02;59.26;99198.94;5011178;28;20268;-76
2022/05/23 06:46:55;;;;;;;5.30;2.30;;;;;;;23.02;59.42;99193.16;4993625;28;20419;-75
2022/05/23 06:49:20;;;;;;;9.37;3.17;;;;;;;23.02;59.00;99199.72;4992586;28;20169;-76
2022/05/23 06:51:49;;;;;;;8.03;2.50;;;;;;;23.01;59.18;99189.47;5010428;28;20173;-75
2022/05/23 06:54:16;;;;;;;4.53;2.20;;;;;;;23.01;59.01;99182.88;4994595;28;20200;-75
2022/05/23 06:56:42;;;;;;;2.47;1.70;;;;;;;23.00;59.18;99179.19;4994465;28;20420;-74
2022/05/23 06:59:09;;;;;;;6.87;3.10;;;;;;;23.00;59.32;99166.88;4961629;28;20519;-74
2022/05/23 07:01:35;;;;;;;5.07;1.93;;;;;;;23.00;59.09;99167.69;4978127;28;20506;-76
2022/05/23 07:04:01;;;;;;;4.13;2.20;;;;;;;23.00;59.18;99166.88;4977739;28;20436;-74
2022/05/23 07:14:38;;;;;;;3.77;2.10;;;;;;;23.00;59.28;99150.41;4996134;28;20411;-77
2022/05/23 07:17:05;;;;;;;5.00;2.43;;;;;;;22.99;59.01;99140.16;4984903;28;20416;-74
2022/05/23 07:19:31;;;;;;;6.10;2.53;;;;;;;23.00;59.14;99124.50;4996759;28;20621;-76
2022/05/23 07:21:59;;;;;;;3.80;2.20;;;;;;;23.00;59.32;99121.63;5012952;28;20465;-75
2022/05/23 07:24:26;;;;;;;4.23;2.10;;;;;;;23.00;58.85;99117.94;5013675;28;20179;-76
2022/05/23 07:26:54;;;;;;;4.30;2.33;;;;;;;23.00;59.02;99121.63;4996013;28;20517;-75
2022/05/23 07:29:22;;;;;;;4.10;1.90;;;;;;;23.01;59.01;99133.94;4995485;28;20442;-74
2022/05/23 07:31:48;;;;;;;4.50;2.40;;;;;;;23.00;58.82;99120.81;5012173;28;20415;-74
2022/05/23 07:34:13;;;;;;;4.30;2.23;;;;;;;22.99;58.89;99120.00;4978756;28;20451;-77
2022/05/23 07:36:39;;;;;;;4.93;2.50;;;;;;;22.98;58.87;99106.84;4996390;28;20427;-74
2022/05/23 07:39:08;;;;;;;4.30;2.10;;;;;;;22.98;59.09;99101.09;4991814;28;20153;-74
2022/05/23 07:41:34;;;;;;;5.73;2.27;;;;;;;22.98;59.09;99112.59;4976891;28;20204;-74
2022/05/23 07:43:59;;;;;;;4.83;2.37;;;;;;;22.98;59.36;99095.31;4961112;28;20435;-75
2022/05/23 07:46:24;;;;;;;5.63;2.23;;;;;;;22.98;58.82;99098.22;4993512;28;20416;-77
2022/05/23 07:48:51;;;;;;;4.87;2.13;;;;;;;22.99;59.17;99096.16;4993503;28;20184;-76
2022/05/23 07:51:18;;;;;;;7.00;2.30;;;;;;;22.99;59.12;99079.72;5010762;28;20689;-75
2022/05/23 08:01:55;;;;;;;5.40;2.77;;;;;;;22.98;59.01;99080.13;4974940;28;20831;-74
2022/05/23 08:04:21;;;;;;;4.20;1.80;;;;;;;22.97;59.44;99082.19;4969581;28;20474;-75
2022/05/23 08:06:47;;;;;;;3.47;2.00;;;;;;;22.97;59.09;99082.19;4955933;28;20248;-77
2022/05/23 08:09:12;;;;;;;3.20;2.00;;;;;;;22.98;59.39;99083.03;4939807;28;20206;-76
2022/05/23 08:11:39;;;;;;;5.10;2.40;;;;;;;22.96;59.36;99085.50;4972273;28;20985;-76
2022/05/23 08:14:04;;;;;;;3.50;2.03;;;;;;;22.95;59.30;99089.66;4956458;28;20247;-76
2022/05/23 08:16:30;;;;;;;5.00;2.43;;;;;;;22.94;59.68;99106.13;4952384;28;20419;-76
2022/05/23 08:18:56;;;;;;;3.60;2.00;;;;;;;22.93;59.59;99104.47;5010094;28;20508;-76
2022/05/23 08:21:21;;;;;;;4.90;2.43;;;;;;;22.92;59.90;99099.97;4992912;28;20200;-75
2022/05/23 08:23:47;;;;;;;4.53;2.27;;;;;;;22.93;59.60;99092.16;4976580;28;20424;-74
2022/05/23 08:26:14;;;;;;;4.10;2.43;;;;;;;22.93;59.63;99095.84;4960229;28;20169;-76
2022/05/23 08:28:39;;;;;;;4.23;2.67;;;;;;;22.94;59.78;99094.59;4992895;28;20162;-77
2022/05/23 08:31:05;;;;;;;3.37;2.00;;;;;;;22.94;59.89;99099.53;4976368;28;20420;-78
2022/05/23 08:33:30;;;;;;;4.27;2.63;;;;;;;22.93;59.98;99104.47;4976326;28;20517;-76
2022/05/23 08:35:55;;;;;;;4.23;2.20;;;;;;;22.92;60.23;99096.31;4992625;28;20169;-77
2022/05/23 08:38:21;;;;;;;3.40;2.30;;;;;;;22.91;60.09;99086.84;4991417;28;20165;-77
2022/05/23 08:40:54;;;;;;;5.30;2.60;;;;;;;22.91;59.91;99098.34;4990386;28;20542;-75
2022/05/23 08:43:31;;;;;;;3.83;2.40;;;;;;;22.91;59.99;99112.75;4942813;28;20180;-74
2022/05/23 08:45:57;;;;;;;5.73;2.50;;;;;;;22.94;59.94;99116.81;4960354;28;20405;-77
2022/05/23 08:48:29;;;;;;;4.70;2.60;;;;;;;22.96;60.03;99128.69;4960570;28;20440;-74
2022/05/23 08:51:11;;;;;;;6.63;2.60;;;;;;;22.95;59.96;99124.19;4959640;28;20495;-74
2022/05/23 08:54:11;;;;;;;5.93;2.70;;;;;;;22.94;60.03;99123.38;4976704;28;20912;-74
2022/05/23 08:56:39;;;;;;;4.10;2.53;;;;;;;22.93;60.36;99115.97;4958609;28;20675;-74
2022/05/23 08:59:11;;;;;;;4.93;2.37;;;;;;;22.94;60.34;99117.63;4975422;28;20892;-76
2022/05/23 09:01:58;;;;;;;4.80;2.70;;;;;;;22.95;60.23;99124.19;4959779;28;20472;-76
2022/05/23 09:04:38;;;;;;;3.90;2.40;;;;;;;22.95;60.32;99125.00;4958872;28;20444;-76
2022/05/23 09:07:05;;;;;;;4.57;2.73;;;;;;;22.95;60.34;99129.94;4975495;28;20452;-75
2022/05/23 09:09:34;;;;;;;5.13;2.00;;;;;;;22.93;59.88;99130.38;4961384;28;20435;-74
2022/05/23 09:12:10;;;;;;;4.40;2.57;;;;;;;22.94;60.41;99099.53;4964038;28;20424;-76
2022/05/23 09:14:36;;;;;;;4.20;2.60;;;;;;;22.92;59.98;99091.34;4979797;28;20477;-76
2022/05/23 09:17:02;;;;;;;6.97;2.20;;;;;;;22.94;60.23;99106.13;5003186;28;20411;-74
2022/05/23 09:19:37;;;;;;;4.33;2.83;;;;;;;22.93;60.46;99092.97;4982108;28;20515;-74
2022/05/23 09:22:18;;;;;;;4.57;2.73;;;;;;;22.94;60.67;99085.97;4998965;28;20214;-76
2022/05/23 09:24:57;;;;;;;5.63;2.83;;;;;;;22.94;60.51;99088.84;4999619;28;20902;-77
2022/05/23 09:27:35;;;;;;;4.60;2.80;;;;;;;22.96;60.26;99108.53;4998943;28;20500;-75
2022/05/23 09:30:01;;;;;;;5.70;3.43;;;;;;;22.96;60.05;99126.63;5013130;28;20902;-75
2022/05/23 09:32:28;;;;;;;6.57;3.47;;;;;;;22.94;60.31;99132.03;4995296;28;20451;-74
2022/05/23 09:34:58;;;;;;;3.63;2.10;;;;;;;22.94;60.63;99137.78;4978861;28;20185;-77
2022/05/23 09:37:38;;;;;;;6.23;2.20;;;;;;;22.95;60.66;99127.88;4979605;28;20798;-75
2022/05/23 09:40:04;;;;;;;3.60;2.50;;;;;;;22.93;60.44;99133.25;4980457;28;20826;-77
2022/05/23 09:48:13;;;;;;;4.23;2.50;;;;;;;22.90;60.62;99165.81;4997837;28;20415;-78
2022/05/23 09:50:41;;;;;;;5.83;2.83;;;;;;;22.92;60.74;99162.50;4994499;28;20518;-77
2022/05/23 09:53:46;;;;;;;5.13;3.00;;;;;;;22.91;60.33;99170.31;4979022;28;20420;-75
2022/05/23 09:56:29;;;;;;;6.30;2.40;;;;;;;22.93;60.70;99190.81;4997372;28;21085;-74
2022/05/23 09:58:54;;;;;;;4.90;2.50;;;;;;;22.92;60.42;99203.59;4995928;28;20419;-75
2022/05/23 10:01:27;;;;;;;3.93;2.40;;;;;;;22.92;60.75;99189.19;4978676;28;20467;-76
2022/05/23 10:03:54;;;;;;;3.67;1.97;;;;;;;22.92;60.26;99180.56;4978261;28;20624;-76
2022/05/23 10:06:20;;;;;;;6.97;2.50;;;;;;;22.92;60.33;99188.41;4978287;28;20515;-76
2022/05/23 10:08:47;;;;;;;3.90;2.30;;;;;;;22.90;60.32;99197.47;4962032;28;20436;-76
2022/05/23 10:11:23;;;;;;;3.30;2.10;;;;;;;22.91;60.49;99222.13;4962263;28;20917;-76
2022/05/23 10:13:53;;;;;;;6.27;2.40;;;;;;;22.91;60.38;99221.28;4979009;28;20775;-75
2022/05/23 10:16:29;;;;;;;3.67;2.47;;;;;;;22.90;60.08;99220.50;4964395;28;20432;-76
2022/05/23 10:19:00;;;;;;;5.80;2.60;;;;;;;22.88;60.28;99196.28;5013403;28;20408;-76
2022/05/23 10:21:37;;;;;;;3.53;2.30;;;;;;;22.88;60.40;99176.94;4962222;28;20542;-77
2022/05/23 10:24:05;;;;;;;5.23;2.97;;;;;;;22.86;59.85;99127.63;4978963;28;20411;-74
2022/05/23 10:26:33;;;;;;;4.37;2.20;;;;;;;22.85;60.43;99103.00;4978110;28;20478;-76
2022/05/23 10:29:15;;;;;;;4.70;2.50;;;;;;;22.84;60.19;99072.59;4978297;28;20444;-75
2022/05/23 10:31:47;;;;;;;3.97;2.23;;;;;;;22.85;60.34;99027.34;4979469;28;20413;-74
2022/05/23 10:34:52;;;;;;;3.70;2.20;;;;;;;22.84;60.17;99043.81;4962204;28;20935;-74
2022/05/23 10:37:23;;;;;;;5.40;2.53;;;;;;;22.84;60.27;99060.25;4980366;28;20448;-76
2022/05/23 10:42:46;;;;;;;6.57;2.60;;;;;;;22.85;59.94;99146.16;4980512;28;20454;-76
2022/05/23 10:45:21;;;;;;;4.80;2.30;;;;;;;22.84;60.09;99124.41;4994150;28;20455;-76
2022/05/23 10:47:53;;;;;;;3.63;2.10;;;;;;;22.83;60.28;99099.72;4977623;28;20424;-77
2022/05/23 10:50:44;;;;;;;4.53;2.33;;;;;;;22.83;60.47;99076.69;5009880;28;20953;-76
2022/05/23 10:53:12;;;;;;;3.83;2.23;;;;;;;22.82;60.58;99077.97;4995613;28;20941;-75
2022/05/23 10:55:40;;;;;;;5.20;3.07;;;;;;;22.82;60.50;99085.78;5008268;28;20432;-75
2022/05/23 10:58:12;;;;;;;3.67;2.10;;;;;;;22.82;60.30;99071.41;4974530;28;20507;-76
2022/05/23 11:00:51;;;;;;;2.90;2.30;;;;;;;22.82;60.04;99080.84;4974770;28;20556;-76
2022/05/23 11:03:48;;;;;;;6.77;2.67;;;;;;;22.82;60.24;99075.06;4974467;28;20496;-76
2022/05/23 11:06:17;;;;;;;7.47;2.50;;;;;;;22.82;60.44;99063.56;4960632;28;20469;-74
2022/05/23 11:08:51;;;;;;;4.50;2.60;;;;;;;22.82;60.13;99060.69;4991332;28;20417;-76
2022/05/23 11:12:10;;;;;;;4.50;2.53;;;;;;;22.83;60.50;99038.50;4977630;28;20419;-75
2022/05/23 11:14:54;;;;;;;7.27;2.90;;;;;;;22.83;60.26;99027.78;4981281;28;20447;-76
2022/05/23 11:17:28;;;;;;;5.10;2.40;;;;;;;22.82;60.20;99008.88;5020284;28;20457;-76
2022/05/23 11:20:11;;;;;;;6.97;2.20;;;;;;;22.83;59.96;98998.19;5012763;28;20826;-77
2022/05/23 11:22:42;;;;;;;4.57;2.20;;;;;;;22.82;60.21;99000.25;4993217;28;20538;-74
2022/05/23 11:25:16;;;;;;;4.70;2.10;;;;;;;22.82;60.16;98991.63;4975947;28;20796;-78
2022/05/23 11:33:52;;;;;;;6.90;2.73;;;;;;;22.82;59.90;98965.72;4995833;28;20531;-76
2022/05/23 11:36:24;;;;;;;5.17;2.70;;;;;;;22.82;60.70;98957.09;4961031;28;20427;-77
2022/05/23 11:38:51;;;;;;;5.47;2.60;;;;;;;22.82;60.17;98954.22;4977315;28;20451;-74
2022/05/23 11:41:39;;;;;;;5.40;2.83;;;;;;;22.82;60.33;98948.44;4976808;28;20423;-77
2022/05/23 11:44:33;;;;;;;3.90;2.57;;;;;;;22.82;60.43;98948.44;5010650;28;20443;-76
2022/05/23 11:47:06;;;;;;;4.37;2.50;;;;;;;22.82;60.85;98948.44;4995239;28;20510;-74
2022/05/23 11:49:42;;;;;;;4.50;2.80;;;;;;;22.83;61.13;98960.78;4976688;28;20404;-76
2022/05/23 11:52:25;;;;;;;5.67;2.50;;;;;;;22.82;61.12;98965.72;4975737;28;20957;-77
2022/05/23 11:54:51;;;;;;;4.60;2.53;;;;;;;22.83;60.91;98983.81;4959621;28;20486;-75
2022/05/23 11:57:36;;;;;;;7.70;2.53;;;;;;;22.82;61.18;98999.47;4975141;28;20409;-74
2022/05/23 12:00:36;;;;;;;6.13;2.83;;;;;;;22.81;61.57;99015.06;4979377;28;20430;-76
2022/05/23 12:03:13;;;;;;;4.77;2.97;;;;;;;22.81;61.35;99007.28;4991343;28;20460;-76
2022/05/23 12:05:38;;;;;;;4.50;2.97;;;;;;;22.83;61.69;99003.97;4975503;28;20518;-76
2022/05/23 12:08:06;;;;;;;3.90;2.70;;;;;;;22.82;62.13;99011.75;4959233;28;20799;-76
2022/05/23 12:10:36;;;;;;;4.50;2.33;;;;;;;22.82;62.40;99023.28;4990865;28;20172;-74
2022/05/23 12:13:11;;;;;;;5.70;2.80;;;;;;;22.84;62.49;99017.09;5010141;28;20427;-77
2022/05/23 12:15:42;;;;;;;5.23;3.03;;;;;;;22.83;62.15;98996.13;5010361;28;20411;-74
2022/05/23 12:18:19;;;;;;;4.57;2.90;;;;;;;22.84;62.55;98991.19;5012904;28;20412;-74
2022/05/23 12:20:51;;;;;;;5.13;2.53;;;;;;;22.85;62.38;98985.00;5014091;28;20470;-76
2022/05/23 12:23:39;;;;;;;8.80;2.90;;;;;;;22.86;62.20;98977.97;4981136;28;20969;-75
2022/05/23 12:26:25;;;;;;;4.80;3.10;;;;;;;22.87;62.10;98973.84;4980377;28;20539;-74
2022/05/23 12:29:00;;;;;;;6.23;3.00;;;;;;;22.86;62.31;98960.72;4996237;28;20414;-74
2022/05/23 12:31:27;;;;;;;4.63;2.70;;;;;;;22.86;63.11;98957.84;4978505;28;20491;-77
2022/05/23 12:34:13;;;;;;;7.80;3.20;;;;;;;22.87;62.77;98952.91;4962646;28;20518;-74
2022/05/23 12:36:49;;;;;;;5.33;3.03;;;;;;;22.88;62.88;98955.31;5011914;28;20436;-76
2022/05/23 12:39:35;;;;;;;9.93;3.70;;;;;;;22.89;63.62;98925.28;4977892;28;20427;-74